sensor_id;sensor_type;location;lat;lon;timestamp;pressure;altitude;pressure_sealevel;temperature;humidity
14295;BME280;7231;59.370;18.016;2022-10-31T00:01:33;101517.00;;;4.39;95.04
14295;BME280;7231;59.370;18.016;2022-10-31T00:04:02;101395.41;;;3.64;94.95
14295;BME280;7231;59.370;18.016;2022-10-31T00:06:30;101391.94;;;3.64;94.91
14295;BME280;7231;59.370;18.016;2022-10-31T00:09:00;101523.59;;;4.34;95.33
14295;BME280;7231;59.370;18.016;2022-10-31T00:11:29;101508.41;;;4.27;95.16
14295;BME280;7231;59.370;18.016;2022-10-31T00:13:58;101507.81;;;4.31;95.51
14295;BME280;7231;59.370;18.016;2022-10-31T00:16:27;101493.44;;;4.22;95.24
14295;BME280;7231;59.370;18.016;2022-10-31T00:18:58;101476.28;;;4.11;95.43
14295;BME280;7231;59.370;18.016;2022-10-31T00:21:26;101510.22;;;4.28;95.52
14295;BME280;7231;59.370;18.016;2022-10-31T00:23:55;101501.63;;;4.29;95.83
14295;BME280;7231;59.370;18.016;2022-10-31T00:26:23;101491.84;;;4.24;96.04
14295;BME280;7231;59.370;18.016;2022-10-31T00:28:51;101500.03;;;4.31;96.30
14295;BME280;7231;59.370;18.016;2022-10-31T00:31:20;101472.72;;;4.09;96.46
14295;BME280;7231;59.370;18.016;2022-10-31T00:33:48;101509.59;;;4.32;96.75
14295;BME280;7231;59.370;18.016;2022-10-31T00:36:17;101512.22;;;4.32;96.92
14295;BME280;7231;59.370;18.016;2022-10-31T00:38:46;101469.41;;;4.12;97.43
14295;BME280;7231;59.370;18.016;2022-10-31T00:41:16;101484.66;;;4.20;97.36
14295;BME280;7231;59.370;18.016;2022-10-31T00:43:44;101499.03;;;4.29;97.31
14295;BME280;7231;59.370;18.016;2022-10-31T00:46:12;101446.06;;;3.99;97.77
14295;BME280;7231;59.370;18.016;2022-10-31T00:48:42;101511.59;;;4.36;98.15
14295;BME280;7231;59.370;18.016;2022-10-31T00:51:10;101505.50;;;4.35;98.10
14295;BME280;7231;59.370;18.016;2022-10-31T00:53:38;101474.88;;;4.16;98.17
14295;BME280;7231;59.370;18.016;2022-10-31T00:56:06;101514.28;;;4.37;98.11
14295;BME280;7231;59.370;18.016;2022-10-31T00:58:34;101510.91;;;4.38;98.38
14295;BME280;7231;59.370;18.016;2022-10-31T01:01:03;101507.41;;;4.38;98.74
14295;BME280;7231;59.370;18.016;2022-10-31T01:03:32;101505.91;;;4.41;98.96
14295;BME280;7231;59.370;18.016;2022-10-31T01:06:05;101505.19;;;4.44;99.54
14295;BME280;7231;59.370;18.016;2022-10-31T01:08:34;101497.50;;;4.45;99.49
14295;BME280;7231;59.370;18.016;2022-10-31T01:11:05;101505.38;;;4.47;99.62
14295;BME280;7231;59.370;18.016;2022-10-31T01:13:34;101495.91;;;4.47;99.65
14295;BME280;7231;59.370;18.016;2022-10-31T01:16:04;101498.59;;;4.49;100.00
14295;BME280;7231;59.370;18.016;2022-10-31T01:18:34;101495.19;;;4.50;100.00
14295;BME280;7231;59.370;18.016;2022-10-31T01:21:06;101494.28;;;4.49;100.00
14295;BME280;7231;59.370;18.016;2022-10-31T01:23:35;101440.63;;;4.22;100.00
14295;BME280;7231;59.370;18.016;2022-10-31T01:26:06;101495.19;;;4.50;100.00
14295;BME280;7231;59.370;18.016;2022-10-31T01:28:36;101497.69;;;4.48;100.00
14295;BME280;7231;59.370;18.016;2022-10-31T01:31:07;101494.00;;;4.45;100.00
14295;BME280;7231;59.370;18.016;2022-10-31T01:33:36;101465.38;;;4.30;100.00
14295;BME280;7231;59.370;18.016;2022-10-31T01:36:14;101488.44;;;4.39;100.00
14295;BME280;7231;59.370;18.016;2022-10-31T01:38:42;101490.72;;;4.34;100.00
14295;BME280;7231;59.370;18.016;2022-10-31T01:41:11;101483.44;;;4.29;99.94
14295;BME280;7231;59.370;18.016;2022-10-31T01:43:48;101481.84;;;4.31;100.00
14295;BME280;7231;59.370;18.016;2022-10-31T01:46:20;101481.28;;;4.21;100.00
14295;BME280;7231;59.370;18.016;2022-10-31T01:48:50;101444.47;;;4.01;100.00
14295;BME280;7231;59.370;18.016;2022-10-31T01:51:23;101493.53;;;4.24;100.00
14295;BME280;7231;59.370;18.016;2022-10-31T01:53:55;101489.84;;;4.20;100.00
14295;BME280;7231;59.370;18.016;2022-10-31T01:56:25;101494.06;;;4.18;100.00
14295;BME280;7231;59.370;18.016;2022-10-31T01:58:54;101466.31;;;4.04;100.00
14295;BME280;7231;59.370;18.016;2022-10-31T02:01:24;101481.38;;;4.10;100.00
14295;BME280;7231;59.370;18.016;2022-10-31T02:03:52;101454.16;;;3.90;100.00
14295;BME280;7231;59.370;18.016;2022-10-31T02:06:31;101483.88;;;4.08;100.00
14295;BME280;7231;59.370;18.016;2022-10-31T02:09:02;101424.75;;;3.76;100.00
14295;BME280;7231;59.370;18.016;2022-10-31T02:11:31;101456.16;;;3.94;100.00
14295;BME280;7231;59.370;18.016;2022-10-31T02:14:02;101499.03;;;4.15;100.00
14295;BME280;7231;59.370;18.016;2022-10-31T02:16:30;101493.84;;;4.15;100.00
14295;BME280;7231;59.370;18.016;2022-10-31T02:18:58;101496.97;;;4.10;100.00
14295;BME280;7231;59.370;18.016;2022-10-31T02:21:33;101489.84;;;4.20;100.00
14295;BME280;7231;59.370;18.016;2022-10-31T02:24:33;101499.81;;;4.28;100.00
14295;BME280;7231;59.370;18.016;2022-10-31T02:27:11;101495.22;;;4.37;100.00
14295;BME280;7231;59.370;18.016;2022-10-31T02:29:55;101474.75;;;4.41;100.00
14295;BME280;7231;59.370;18.016;2022-10-31T02:32:36;101491.38;;;4.58;100.00
14295;BME280;7231;59.370;18.016;2022-10-31T02:35:11;101492.75;;;4.66;100.00
14295;BME280;7231;59.370;18.016;2022-10-31T02:37:46;101490.44;;;4.71;100.00
14295;BME280;7231;59.370;18.016;2022-10-31T02:40:22;101487.03;;;4.72;100.00
14295;BME280;7231;59.370;18.016;2022-10-31T02:42:57;101489.53;;;4.70;100.00
14295;BME280;7231;59.370;18.016;2022-10-31T02:45:30;101434.72;;;4.38;100.00
14295;BME280;7231;59.370;18.016;2022-10-31T02:48:08;101378.00;;;4.03;100.00
14295;BME280;7231;59.370;18.016;2022-10-31T02:50:40;101440.94;;;4.27;100.00
14295;BME280;7231;59.370;18.016;2022-10-31T02:53:09;101472.25;;;4.43;100.00
14295;BME280;7231;59.370;18.016;2022-10-31T02:55:49;101506.97;;;4.58;100.00
14295;BME280;7231;59.370;18.016;2022-10-31T02:58:22;101501.66;;;4.56;100.00
14295;BME280;7231;59.370;18.016;2022-10-31T03:01:05;101477.94;;;4.37;100.00
14295;BME280;7231;59.370;18.016;2022-10-31T03:03:46;101510.78;;;4.50;100.00
14295;BME280;7231;59.370;18.016;2022-10-31T03:06:24;101506.09;;;4.44;100.00
14295;BME280;7231;59.370;18.016;2022-10-31T03:09:02;101458.41;;;4.16;100.00
14295;BME280;7231;59.370;18.016;2022-10-31T03:11:36;101505.00;;;4.41;100.00
14295;BME280;7231;59.370;18.016;2022-10-31T03:14:12;101507.69;;;4.42;100.00
14295;BME280;7231;59.370;18.016;2022-10-31T03:16:46;101412.06;;;3.94;100.00
14295;BME280;7231;59.370;18.016;2022-10-31T03:19:17;101505.38;;;4.47;100.00
14295;BME280;7231;59.370;18.016;2022-10-31T03:21:50;101480.63;;;4.39;100.00
14295;BME280;7231;59.370;18.016;2022-10-31T03:24:22;101508.47;;;4.54;100.00
14295;BME280;7231;59.370;18.016;2022-10-31T03:26:54;101495.75;;;4.59;100.00
14295;BME280;7231;59.370;18.016;2022-10-31T03:29:27;101460.16;;;4.43;100.00
14295;BME280;7231;59.370;18.016;2022-10-31T03:31:59;101493.53;;;4.65;100.00
14295;BME280;7231;59.370;18.016;2022-10-31T03:34:31;101500.22;;;4.75;100.00
14295;BME280;7231;59.370;18.016;2022-10-31T03:37:07;101499.06;;;4.84;100.00
14295;BME280;7231;59.370;18.016;2022-10-31T03:39:40;101495.44;;;4.96;100.00
14295;BME280;7231;59.370;18.016;2022-10-31T03:42:10;101501.19;;;5.05;100.00
14295;BME280;7231;59.370;18.016;2022-10-31T03:44:43;101503.44;;;5.13;100.00
14295;BME280;7231;59.370;18.016;2022-10-31T03:47:13;101495.91;;;5.18;100.00
14295;BME280;7231;59.370;18.016;2022-10-31T03:49:43;101491.06;;;5.24;100.00
14295;BME280;7231;59.370;18.016;2022-10-31T03:52:18;101495.19;;;5.35;100.00
14295;BME280;7231;59.370;18.016;2022-10-31T03:54:52;101492.16;;;5.42;100.00
14295;BME280;7231;59.370;18.016;2022-10-31T03:57:25;101488.28;;;5.50;100.00
14295;BME280;7231;59.370;18.016;2022-10-31T03:59:59;101484.44;;;5.59;100.00
14295;BME280;7231;59.370;18.016;2022-10-31T04:02:32;101462.38;;;5.52;100.00
14295;BME280;7231;59.370;18.016;2022-10-31T04:05:03;101483.69;;;5.76;100.00
14295;BME280;7231;59.370;18.016;2022-10-31T04:07:34;101485.41;;;5.90;100.00
14295;BME280;7231;59.370;18.016;2022-10-31T04:10:07;101476.50;;;6.01;100.00
14295;BME280;7231;59.370;18.016;2022-10-31T04:12:38;101483.31;;;6.14;100.00
14295;BME280;7231;59.370;18.016;2022-10-31T04:15:08;101469.38;;;6.13;100.00
14295;BME280;7231;59.370;18.016;2022-10-31T04:17:40;101471.31;;;6.32;100.00
14295;BME280;7231;59.370;18.016;2022-10-31T04:20:15;101465.78;;;6.42;100.00
14295;BME280;7231;59.370;18.016;2022-10-31T04:22:43;101454.97;;;6.51;100.00
14295;BME280;7231;59.370;18.016;2022-10-31T04:25:12;101458.88;;;6.59;100.00
14295;BME280;7231;59.370;18.016;2022-10-31T04:27:39;101457.59;;;6.67;100.00
14295;BME280;7231;59.370;18.016;2022-10-31T04:30:08;101458.72;;;6.72;100.00
14295;BME280;7231;59.370;18.016;2022-10-31T04:32:36;101454.50;;;6.74;100.00
14295;BME280;7231;59.370;18.016;2022-10-31T04:35:05;101461.00;;;6.82;100.00
14295;BME280;7231;59.370;18.016;2022-10-31T04:37:34;101438.34;;;6.81;100.00
14295;BME280;7231;59.370;18.016;2022-10-31T04:40:03;101455.38;;;6.91;100.00
14295;BME280;7231;59.370;18.016;2022-10-31T04:42:32;101450.25;;;6.93;100.00
14295;BME280;7231;59.370;18.016;2022-10-31T04:45:00;101445.09;;;6.94;100.00
14295;BME280;7231;59.370;18.016;2022-10-31T04:47:30;101420.94;;;6.80;100.00
14295;BME280;7231;59.370;18.016;2022-10-31T04:49:58;101422.97;;;6.86;100.00
14295;BME280;7231;59.370;18.016;2022-10-31T04:52:26;101433.13;;;6.98;100.00
14295;BME280;7231;59.370;18.016;2022-10-31T04:54:56;101438.81;;;7.07;100.00
14295;BME280;7231;59.370;18.016;2022-10-31T04:57:24;101437.34;;;7.12;100.00
14295;BME280;7231;59.370;18.016;2022-10-31T04:59:52;101412.13;;;6.95;100.00
14295;BME280;7231;59.370;18.016;2022-10-31T05:02:20;101450.78;;;7.20;100.00
14295;BME280;7231;59.370;18.016;2022-10-31T05:04:48;101439.53;;;7.21;100.00
14295;BME280;7231;59.370;18.016;2022-10-31T05:07:16;101446.09;;;7.30;100.00
14295;BME280;7231;59.370;18.016;2022-10-31T05:09:44;101445.44;;;7.34;100.00
14295;BME280;7231;59.370;18.016;2022-10-31T05:12:13;101440.53;;;7.40;100.00
14295;BME280;7231;59.370;18.016;2022-10-31T05:14:41;101433.69;;;7.42;100.00
14295;BME280;7231;59.370;18.016;2022-10-31T05:17:14;101418.53;;;7.35;100.00
14295;BME280;7231;59.370;18.016;2022-10-31T05:19:41;101421.38;;;7.40;100.00
14295;BME280;7231;59.370;18.016;2022-10-31T05:22:09;101439.28;;;7.50;100.00
14295;BME280;7231;59.370;18.016;2022-10-31T05:24:37;101411.84;;;7.40;100.00
14295;BME280;7231;59.370;18.016;2022-10-31T05:27:05;101432.50;;;7.54;100.00
14295;BME280;7231;59.370;18.016;2022-10-31T05:29:34;101417.34;;;7.46;100.00
14295;BME280;7231;59.370;18.016;2022-10-31T05:32:02;101429.22;;;7.58;100.00
14295;BME280;7231;59.370;18.016;2022-10-31T05:34:30;101433.63;;;7.59;100.00
14295;BME280;7231;59.370;18.016;2022-10-31T05:36:58;101437.13;;;7.59;100.00
14295;BME280;7231;59.370;18.016;2022-10-31T05:39:26;101422.22;;;7.57;100.00
14295;BME280;7231;59.370;18.016;2022-10-31T05:41:54;101428.47;;;7.60;100.00
14295;BME280;7231;59.370;18.016;2022-10-31T05:44:22;101427.66;;;7.61;100.00
14295;BME280;7231;59.370;18.016;2022-10-31T05:46:51;101420.72;;;7.62;100.00
14295;BME280;7231;59.370;18.016;2022-10-31T05:49:19;101430.34;;;7.63;100.00
14295;BME280;7231;59.370;18.016;2022-10-31T05:51:49;101419.97;;;7.64;100.00
14295;BME280;7231;59.370;18.016;2022-10-31T05:54:17;101424.38;;;7.65;100.00
14295;BME280;7231;59.370;18.016;2022-10-31T05:56:45;101418.34;;;7.66;100.00
14295;BME280;7231;59.370;18.016;2022-10-31T05:59:13;101421.84;;;7.67;100.00
14295;BME280;7231;59.370;18.016;2022-10-31T06:01:41;101425.44;;;7.69;100.00
14295;BME280;7231;59.370;18.016;2022-10-31T06:04:11;101430.72;;;7.70;100.00
14295;BME280;7231;59.370;18.016;2022-10-31T06:06:39;101393.28;;;7.52;100.00
14295;BME280;7231;59.370;18.016;2022-10-31T06:09:07;101438.78;;;7.75;100.00
14295;BME280;7231;59.370;18.016;2022-10-31T06:11:34;101439.66;;;7.75;100.00
14295;BME280;7231;59.370;18.016;2022-10-31T06:14:03;101429.31;;;7.77;100.00
14295;BME280;7231;59.370;18.016;2022-10-31T06:16:31;101425.88;;;7.78;100.00
14295;BME280;7231;59.370;18.016;2022-10-31T06:18:58;101430.38;;;7.82;100.00
14295;BME280;7231;59.370;18.016;2022-10-31T06:21:28;101436.50;;;7.82;100.00
14295;BME280;7231;59.370;18.016;2022-10-31T06:23:56;101435.75;;;7.85;100.00
14295;BME280;7231;59.370;18.016;2022-10-31T06:26:24;101440.22;;;7.88;100.00
14295;BME280;7231;59.370;18.016;2022-10-31T06:28:52;101435.16;;;7.91;100.00
14295;BME280;7231;59.370;18.016;2022-10-31T06:31:24;101443.13;;;7.94;100.00
14295;BME280;7231;59.370;18.016;2022-10-31T06:33:52;101427.25;;;7.89;100.00
14295;BME280;7231;59.370;18.016;2022-10-31T06:36:20;101415.75;;;7.86;100.00
14295;BME280;7231;59.370;18.016;2022-10-31T06:38:49;101447.91;;;8.02;100.00
14295;BME280;7231;59.370;18.016;2022-10-31T06:41:17;101437.59;;;8.05;100.00
14295;BME280;7231;59.370;18.016;2022-10-31T06:43:46;101429.91;;;8.08;100.00
14295;BME280;7231;59.370;18.016;2022-10-31T06:46:14;101430.06;;;8.11;100.00
14295;BME280;7231;59.370;18.016;2022-10-31T06:48:42;101425.50;;;8.07;100.00
14295;BME280;7231;59.370;18.016;2022-10-31T06:51:10;101448.78;;;8.21;100.00
14295;BME280;7231;59.370;18.016;2022-10-31T06:53:38;101449.00;;;8.25;100.00
14295;BME280;7231;59.370;18.016;2022-10-31T06:56:07;101403.50;;;8.02;100.00
14295;BME280;7231;59.370;18.016;2022-10-31T06:58:35;101414.53;;;8.14;100.00
14295;BME280;7231;59.370;18.016;2022-10-31T07:01:03;101449.53;;;8.36;100.00
14295;BME280;7231;59.370;18.016;2022-10-31T07:03:31;101442.72;;;8.39;100.00
14295;BME280;7231;59.370;18.016;2022-10-31T07:05:59;101452.44;;;8.42;100.00
14295;BME280;7231;59.370;18.016;2022-10-31T07:08:27;101450.78;;;8.44;100.00
14295;BME280;7231;59.370;18.016;2022-10-31T07:10:56;101404.16;;;8.16;100.00
14295;BME280;7231;59.370;18.016;2022-10-31T07:13:26;101450.94;;;8.47;100.00
14295;BME280;7231;59.370;18.016;2022-10-31T07:16:00;101453.59;;;8.49;100.00
14295;BME280;7231;59.370;18.016;2022-10-31T07:18:28;101446.72;;;8.51;100.00
14295;BME280;7231;59.370;18.016;2022-10-31T07:20:56;101406.22;;;8.23;100.00
14295;BME280;7231;59.370;18.016;2022-10-31T07:23:24;101461.72;;;8.55;100.00
14295;BME280;7231;59.370;18.016;2022-10-31T07:25:54;101443.50;;;8.56;100.00
14295;BME280;7231;59.370;18.016;2022-10-31T07:28:23;101434.41;;;8.48;100.00
14295;BME280;7231;59.370;18.016;2022-10-31T07:30:54;101445.09;;;8.53;100.00
14295;BME280;7231;59.370;18.016;2022-10-31T07:33:23;101455.06;;;8.61;100.00
14295;BME280;7231;59.370;18.016;2022-10-31T07:35:52;101453.41;;;8.63;100.00
14295;BME280;7231;59.370;18.016;2022-10-31T07:38:20;101444.81;;;8.66;100.00
14295;BME280;7231;59.370;18.016;2022-10-31T07:40:50;101452.78;;;8.69;100.00
14295;BME280;7231;59.370;18.016;2022-10-31T07:43:19;101445.84;;;8.69;100.00
14295;BME280;7231;59.370;18.016;2022-10-31T07:45:51;101461.88;;;8.77;100.00
14295;BME280;7231;59.370;18.016;2022-10-31T07:48:21;101451.50;;;8.78;100.00
14295;BME280;7231;59.370;18.016;2022-10-31T07:50:49;101451.63;;;8.82;100.00
14295;BME280;7231;59.370;18.016;2022-10-31T07:53:17;101457.81;;;8.84;100.00
14295;BME280;7231;59.370;18.016;2022-10-31T07:55:45;101458.84;;;8.87;100.00
14295;BME280;7231;59.370;18.016;2022-10-31T07:58:14;101418.88;;;8.70;100.00
14295;BME280;7231;59.370;18.016;2022-10-31T08:00:44;101453.00;;;8.93;100.00
14295;BME280;7231;59.370;18.016;2022-10-31T08:03:14;101444.34;;;8.94;100.00
14295;BME280;7231;59.370;18.016;2022-10-31T08:05:45;101448.03;;;8.99;100.00
14295;BME280;7231;59.370;18.016;2022-10-31T08:08:14;101440.31;;;9.02;100.00
14295;BME280;7231;59.370;18.016;2022-10-31T08:10:43;101454.56;;;9.08;100.00
14295;BME280;7231;59.370;18.016;2022-10-31T08:13:12;101471.28;;;9.12;100.00
14295;BME280;7231;59.370;18.016;2022-10-31T08:15:41;101460.91;;;9.14;100.00
14295;BME280;7231;59.370;18.016;2022-10-31T08:18:11;101433.19;;;8.98;100.00
14295;BME280;7231;59.370;18.016;2022-10-31T08:20:40;101454.16;;;9.19;100.00
14295;BME280;7231;59.370;18.016;2022-10-31T08:23:10;101455.25;;;9.24;100.00
14295;BME280;7231;59.370;18.016;2022-10-31T08:25:39;101447.31;;;9.22;100.00
14295;BME280;7231;59.370;18.016;2022-10-31T08:28:09;101454.66;;;9.31;100.00
14295;BME280;7231;59.370;18.016;2022-10-31T08:30:39;101459.16;;;9.33;100.00
14295;BME280;7231;59.370;18.016;2022-10-31T08:33:10;101446.81;;;9.31;100.00
14295;BME280;7231;59.370;18.016;2022-10-31T08:35:39;101460.38;;;9.41;100.00
14295;BME280;7231;59.370;18.016;2022-10-31T08:38:10;101454.50;;;9.47;100.00
14295;BME280;7231;59.370;18.016;2022-10-31T08:40:38;101448.16;;;9.42;100.00
14295;BME280;7231;59.370;18.016;2022-10-31T08:43:10;101457.31;;;9.52;100.00
14295;BME280;7231;59.370;18.016;2022-10-31T08:45:39;101455.59;;;9.52;100.00
14295;BME280;7231;59.370;18.016;2022-10-31T08:48:10;101451.25;;;9.53;100.00
14295;BME280;7231;59.370;18.016;2022-10-31T08:50:38;101449.59;;;9.55;100.00
14295;BME280;7231;59.370;18.016;2022-10-31T08:53:13;101455.78;;;9.57;100.00
14295;BME280;7231;59.370;18.016;2022-10-31T08:55:42;101452.38;;;9.59;100.00
14295;BME280;7231;59.370;18.016;2022-10-31T08:58:12;101422.06;;;9.43;100.00
14295;BME280;7231;59.370;18.016;2022-10-31T09:00:41;101427.63;;;9.51;100.00
14295;BME280;7231;59.370;18.016;2022-10-31T09:03:11;101448.44;;;9.69;100.00
14295;BME280;7231;59.370;18.016;2022-10-31T09:05:40;101448.69;;;9.75;100.00
14295;BME280;7231;59.370;18.016;2022-10-31T09:08:08;101445.41;;;9.81;100.00
14295;BME280;7231;59.370;18.016;2022-10-31T09:10:44;101435.53;;;9.73;100.00
14295;BME280;7231;59.370;18.016;2022-10-31T09:13:13;101455.44;;;9.91;100.00
14295;BME280;7231;59.370;18.016;2022-10-31T09:15:43;101409.09;;;9.67;100.00
14295;BME280;7231;59.370;18.016;2022-10-31T09:18:13;101471.59;;;10.01;100.00
14295;BME280;7231;59.370;18.016;2022-10-31T09:20:42;101425.94;;;9.74;100.00
14295;BME280;7231;59.370;18.016;2022-10-31T09:23:12;101469.16;;;10.06;100.00
14295;BME280;7231;59.370;18.016;2022-10-31T09:25:41;101464.03;;;10.09;100.00
14295;BME280;7231;59.370;18.016;2022-10-31T09:28:18;101472.00;;;10.12;100.00
14295;BME280;7231;59.370;18.016;2022-10-31T09:30:47;101472.19;;;10.17;100.00
14295;BME280;7231;59.370;18.016;2022-10-31T09:33:15;101469.78;;;10.21;100.00
14295;BME280;7231;59.370;18.016;2022-10-31T09:35:44;101451.13;;;10.14;100.00
14295;BME280;7231;59.370;18.016;2022-10-31T09:38:13;101471.00;;;10.29;100.00
14295;BME280;7231;59.370;18.016;2022-10-31T09:40:43;101455.31;;;10.31;100.00
14295;BME280;7231;59.370;18.016;2022-10-31T09:43:15;101458.06;;;10.34;100.00
14295;BME280;7231;59.370;18.016;2022-10-31T09:45:54;101345.53;;;9.71;100.00
14295;BME280;7231;59.370;18.016;2022-10-31T09:48:41;101455.56;;;10.37;100.00
14295;BME280;7231;59.370;18.016;2022-10-31T09:51:15;101454.88;;;10.43;100.00
14295;BME280;7231;59.370;18.016;2022-10-31T09:53:47;101462.97;;;10.49;100.00
14295;BME280;7231;59.370;18.016;2022-10-31T09:56:18;101453.31;;;10.48;100.00
14295;BME280;7231;59.370;18.016;2022-10-31T09:58:49;101451.69;;;10.51;100.00
14295;BME280;7231;59.370;18.016;2022-10-31T10:01:32;101465.94;;;10.58;100.00
14295;BME280;7231;59.370;18.016;2022-10-31T10:04:05;101462.53;;;10.60;100.00
14295;BME280;7231;59.370;18.016;2022-10-31T10:06:46;101450.22;;;10.58;100.00
14295;BME280;7231;59.370;18.016;2022-10-31T10:09:14;101457.41;;;10.63;100.00
14295;BME280;7231;59.370;18.016;2022-10-31T10:11:51;101460.16;;;10.66;100.00
14295;BME280;7231;59.370;18.016;2022-10-31T10:14:36;101451.44;;;10.67;100.00
14295;BME280;7231;59.370;18.016;2022-10-31T10:17:25;101455.84;;;10.68;100.00
14295;BME280;7231;59.370;18.016;2022-10-31T10:20:05;101448.09;;;10.71;100.00
14295;BME280;7231;59.370;18.016;2022-10-31T10:22:46;101452.44;;;10.71;100.00
14295;BME280;7231;59.370;18.016;2022-10-31T10:25:20;101428.94;;;10.50;100.00
14295;BME280;7231;59.370;18.016;2022-10-31T10:28:02;101445.53;;;10.73;100.00
14295;BME280;7231;59.370;18.016;2022-10-31T10:30:40;101458.66;;;10.73;100.00
14295;BME280;7231;59.370;18.016;2022-10-31T10:33:13;101460.38;;;10.72;100.00
14295;BME280;7231;59.370;18.016;2022-10-31T10:35:45;101453.34;;;10.71;100.00
14295;BME280;7231;59.370;18.016;2022-10-31T10:38:19;101454.06;;;10.67;100.00
14295;BME280;7231;59.370;18.016;2022-10-31T10:40:49;101458.59;;;10.71;100.00
14295;BME280;7231;59.370;18.016;2022-10-31T10:43:22;101465.50;;;10.69;100.00
14295;BME280;7231;59.370;18.016;2022-10-31T10:46:01;101448.66;;;10.63;100.00
14295;BME280;7231;59.370;18.016;2022-10-31T10:48:55;101452.22;;;10.65;100.00
14295;BME280;7231;59.370;18.016;2022-10-31T10:51:29;101451.56;;;10.70;100.00
14295;BME280;7231;59.370;18.016;2022-10-31T10:54:49;101450.78;;;10.73;100.00
14295;BME280;7231;59.370;18.016;2022-10-31T10:57:29;101446.53;;;10.77;100.00
14295;BME280;7231;59.370;18.016;2022-10-31T11:00:13;101452.72;;;10.79;100.00
14295;BME280;7231;59.370;18.016;2022-10-31T11:02:43;101457.19;;;10.81;100.00
14295;BME280;7231;59.370;18.016;2022-10-31T11:05:23;101456.31;;;10.81;100.00
14295;BME280;7231;59.370;18.016;2022-10-31T11:07:51;101450.16;;;10.80;100.00
14295;BME280;7231;59.370;18.016;2022-10-31T11:10:19;101442.63;;;10.89;100.00
14295;BME280;7231;59.370;18.016;2022-10-31T11:13:00;101450.00;;;10.99;100.00
14295;BME280;7231;59.370;18.016;2022-10-31T11:15:32;101461.56;;;11.04;100.00
14295;BME280;7231;59.370;18.016;2022-10-31T11:18:01;101450.16;;;11.04;100.00
14295;BME280;7231;59.370;18.016;2022-10-31T11:20:33;101467.06;;;11.12;100.00
14295;BME280;7231;59.370;18.016;2022-10-31T11:23:05;101472.38;;;11.14;100.00
14295;BME280;7231;59.370;18.016;2022-10-31T11:25:33;101473.34;;;11.16;100.00
14295;BME280;7231;59.370;18.016;2022-10-31T11:28:03;101468.19;;;11.19;100.00
14295;BME280;7231;59.370;18.016;2022-10-31T11:30:44;101473.59;;;11.23;100.00
14295;BME280;7231;59.370;18.016;2022-10-31T11:33:18;101427.38;;;11.03;100.00
14295;BME280;7231;59.370;18.016;2022-10-31T11:35:48;101468.72;;;11.34;100.00
14295;BME280;7231;59.370;18.016;2022-10-31T11:38:25;101442.16;;;11.25;100.00
14295;BME280;7231;59.370;18.016;2022-10-31T11:40:57;101460.59;;;11.52;100.00
14295;BME280;7231;59.370;18.016;2022-10-31T11:43:26;101458.88;;;11.78;100.00
14295;BME280;7231;59.370;18.016;2022-10-31T11:45:54;101454.47;;;12.03;100.00
14295;BME280;7231;59.370;18.016;2022-10-31T11:48:24;101452.56;;;12.26;100.00
14295;BME280;7231;59.370;18.016;2022-10-31T11:50:56;101452.16;;;12.43;100.00
14295;BME280;7231;59.370;18.016;2022-10-31T11:53:27;101448.16;;;12.55;100.00
14295;BME280;7231;59.370;18.016;2022-10-31T11:56:05;101443.84;;;12.57;100.00
14295;BME280;7231;59.370;18.016;2022-10-31T11:58:38;101442.88;;;12.54;100.00
14295;BME280;7231;59.370;18.016;2022-10-31T12:01:06;101445.91;;;12.67;100.00
14295;BME280;7231;59.370;18.016;2022-10-31T12:03:41;101438.22;;;12.75;100.00
14295;BME280;7231;59.370;18.016;2022-10-31T12:06:16;101443.34;;;13.02;100.00
14295;BME280;7231;59.370;18.016;2022-10-31T12:08:46;101435.81;;;13.16;100.00
14295;BME280;7231;59.370;18.016;2022-10-31T12:11:37;101439.31;;;13.15;100.00
14295;BME280;7231;59.370;18.016;2022-10-31T12:14:18;101440.47;;;13.24;100.00
14295;BME280;7231;59.370;18.016;2022-10-31T12:16:55;101430.09;;;13.30;100.00
14295;BME280;7231;59.370;18.016;2022-10-31T12:19:35;101424.91;;;13.33;100.00
14295;BME280;7231;59.370;18.016;2022-10-31T12:22:18;101369.06;;;13.14;100.00
14295;BME280;7231;59.370;18.016;2022-10-31T12:25:04;101414.06;;;13.56;100.00
14295;BME280;7231;59.370;18.016;2022-10-31T12:27:45;101437.94;;;13.62;100.00
14295;BME280;7231;59.370;18.016;2022-10-31T12:30:19;101436.00;;;13.55;100.00
14295;BME280;7231;59.370;18.016;2022-10-31T12:33:15;101431.34;;;13.45;100.00
14295;BME280;7231;59.370;18.016;2022-10-31T12:35:53;101435.22;;;13.24;100.00
14295;BME280;7231;59.370;18.016;2022-10-31T12:38:42;101415.47;;;13.10;100.00
14295;BME280;7231;59.370;18.016;2022-10-31T12:41:23;101431.56;;;13.19;100.00
14295;BME280;7231;59.370;18.016;2022-10-31T12:43:57;101412.94;;;13.13;100.00
14295;BME280;7231;59.370;18.016;2022-10-31T12:46:40;101429.75;;;13.17;100.00
14295;BME280;7231;59.370;18.016;2022-10-31T12:49:27;101425.47;;;13.22;100.00
14295;BME280;7231;59.370;18.016;2022-10-31T12:52:16;101416.72;;;13.23;100.00
14295;BME280;7231;59.370;18.016;2022-10-31T12:55:08;101387.38;;;13.09;100.00
14295;BME280;7231;59.370;18.016;2022-10-31T12:57:42;101412.13;;;13.16;100.00
14295;BME280;7231;59.370;18.016;2022-10-31T13:00:13;101403.34;;;13.15;100.00
14295;BME280;7231;59.370;18.016;2022-10-31T13:02:48;101413.97;;;13.18;100.00
14295;BME280;7231;59.370;18.016;2022-10-31T13:05:21;101412.44;;;13.26;100.00
14295;BME280;7231;59.370;18.016;2022-10-31T13:07:55;101409.81;;;13.26;100.00
14295;BME280;7231;59.370;18.016;2022-10-31T13:10:30;101423.25;;;13.37;100.00
14295;BME280;7231;59.370;18.016;2022-10-31T13:13:02;101392.06;;;13.19;100.00